• Join FlightAware (Why Join?)
  • Login
  • US Flag 
02:28PM EDT


 

Airport Tracker/Info


-or-


 

Live Flight TrackerFlight Track Log ✈ AWE3397 ✈ 24-Apr-2013 ✈ KMHT - KPHL

Flight Track Log - Related Links

Times and Time Zones

All times are in EDT time to prevent confusion due to time zone crossing. See the AWE3397 flight status page for this flight to view local times or setup timezone preferences in your user account.

Time Position Orientation Groundspeed Altitude Reporting Facility
EDT Latitude Longitude Course Direction KTS MPH feet Rate Location/Type
05:35AM 42.9500 -71.4167 270° West 142 163 1,200  Level KA90
05:36AM 42.9708 -71.4100 13° North 195 224 2,300 2,640 Climbing Boston Center
05:37AM 43.0147 -71.4178 353° North 190 219 5,300 3,300 Climbing Boston Center
05:38AM 42.9480 -71.8901 285° West  Level FlightAware Approximate
05:38AM 43.0553 -71.5081 302° West 218 251 9,000  Level Boston Center
05:39AM 42.9500 -72.0052 270° West  Level FlightAware Approximate
05:39AM 43.0558 -71.6133 270° West 278 320 12,000  Level Boston Center
05:40AM 42.9501 -72.1207 270° West  Level FlightAware Approximate
05:40AM 43.0528 -71.7469 268° West 316 364 15,900  Level Boston Center
05:41AM 43.0472 -71.9003 267° West 335 386 18,900 2,580 Climbing Boston Center
05:42AM 43.0436 -72.0225 268° West 348 400 21,600 2,460 Climbing Boston Center
05:43AM 43.0419 -72.1589 269° West 360 414 23,900 2,100 Climbing Boston Center
05:44AM 43.0400 -72.3036 269° West 372 428 25,800 1,020 Climbing Boston Center
05:45AM 43.0361 -72.4486 268° West 381 438 26,000 60 Climbing Boston Center
05:46AM 43.0067 -72.5933 254° West 393 452 26,000  Level Boston Center
05:47AM 42.9522 -72.7322 242° Southwest 400 460 26,000  Level Boston Center
05:48AM 42.9019 -72.8822 245° Southwest 400 460 26,000  Level Boston Center
05:49AM 42.8594 -73.0208 247° West 400 460 26,000  Level Boston Center
05:50AM 42.8128 -73.1533 244° Southwest 395 455 26,000 -480 Level Boston Center
05:51AM 42.7683 -73.2886 246° West 395 455 25,100 -960 Descending Boston Center
05:52AM 42.7214 -73.4208 244° Southwest 395 455 24,100 -600 Descending Boston Center
05:53AM 42.6764 -73.5528 245° Southwest 395 455 24,000 -60 Descending Boston Center
05:54AM 42.6311 -73.6817 245° Southwest 395 455 24,000  Level Boston Center
05:55AM 42.5858 -73.8161 245° Southwest 388 447 24,000  Level Boston Center
05:56AM 42.5383 -73.9475 244° Southwest 388 447 24,000  Level Boston Center
05:57AM 42.4928 -74.0817 245° Southwest 393 452 24,000  Level Boston Center
05:58AM 42.4450 -74.2156 244° Southwest 393 452 24,000  Level Boston Center
05:59AM 42.3989 -74.3464 245° Southwest 398 458 24,000  Level Boston Center
06:00AM 42.3553 -74.4631 243° Southwest 398 458 24,000  Level Boston Center
06:01AM 42.2925 -74.5817 234° Southwest 398 458 24,000  Level Boston Center
06:03AM 42.1519 -74.8186 231° Southwest 408 470 24,000 -480 Level New York Center
06:04AM 42.0922 -74.9211 232° Southwest 402 463 22,600 -1,680 Descending New York Center
06:05AM 42.0281 -75.0286 231° Southwest 392 451 20,700 -1,800 Descending New York Center
06:06AM 41.9556 -75.1383 228° Southwest 374 430 19,000 -840 Descending New York Center
06:07AM 41.8758 -75.2083 213° Southwest 353 406 19,000  Level New York Center
06:08AM 41.7922 -75.2750 211° Southwest 353 406 19,000 -660 Level New York Center
06:09AM 41.7192 -75.3339 211° Southwest 353 406 17,800 -1,500 Descending New York Center
06:10AM 41.6375 -75.4006 211° Southwest 353 406 16,000 -1,920 Descending New York Center
06:11AM 41.5472 -75.4719 211° Southwest 353 406 14,000 -1,800 Descending New York Center
06:12AM 41.4717 -75.5331 211° Southwest 337 388 12,400 -1,020 Descending New York Center
06:13AM 41.3944 -75.5939 211° Southwest 330 380 12,000 -240 Descending New York Center
06:14AM 41.3275 -75.6472 211° Southwest 330 380 12,000 -360 Level New York Center
06:15AM 41.2450 -75.6800 197° South 313 360 11,300 -900 Descending New York Center
06:16AM 41.1442 -75.6478 166° South 310 357 10,200 -660 Descending New York Center
06:17AM 41.0558 -75.6222 168° South 326 375 10,000 -120 Descending New York Center
06:18AM 40.9653 -75.5936 167° South 338 389 10,000  Level New York Center
06:19AM 40.8767 -75.5656 167° South 338 389 10,000  Level New York Center
06:20AM 40.7944 -75.5406 167° South 336 387 10,000  Level New York Center
06:21AM 40.7039 -75.5122 167° South 336 387 10,000  Level New York Center
06:22AM 40.6119 -75.4833 167° South 335 386 10,100 60 Climbing FAA TRACON SMA TRACON (SMA)
06:22AM 40.5764 -75.4731 168° South 335 386 10,100  Level FAA TRACON SMA TRACON (SMA)
06:22AM 40.5486 -75.4636 166° South 335 386 10,100  Level FAA TRACON SMA TRACON (SMA)
06:23AM 40.5208 -75.4550 167° South 333 383 10,100 -180 Level FAA TRACON SMA TRACON (SMA)
06:23AM 40.4881 -75.4444 166° South 325 374 10,000 -180 Descending FAA TRACON SMA TRACON (SMA)
06:23AM 40.4636 -75.4375 168° South 306 352 10,000 -480 Level FAA TRACON SMA TRACON (SMA)
06:24AM 40.4392 -75.4267 161° South 302 348 9,700 -1,380 Descending FAA TRACON SMA TRACON (SMA)
06:24AM 40.4106 -75.4089 155° Southeast 299 344 9,100 -1,680 Descending FAA TRACON SMA TRACON (SMA)
06:24AM 40.3861 -75.3967 159° South 300 345 8,600 -1,500 Descending FAA TRACON SMA TRACON (SMA)
06:25AM 40.3644 -75.3819 153° Southeast 297 342 8,100 -1,800 Descending FAA TRACON SMA TRACON (SMA)
06:25AM 40.3347 -75.3653 157° South 292 336 7,400 -1,980 Descending FAA TRACON SMA TRACON (SMA)
06:25AM 40.3122 -75.3519 156° South 291 335 6,800 -1,800 Descending FAA TRACON SMA TRACON (SMA)
06:26AM 40.2900 -75.3397 157° South 286 329 6,200 -1,200 Descending FAA TRACON SMA TRACON (SMA)
06:26AM 40.2622 -75.3222 154° Southeast 286 329 6,000 -300 Descending FAA TRACON SMA TRACON (SMA)
06:26AM 40.2408 -75.3117 159° South 294 338 6,000  Level FAA TRACON SMA TRACON (SMA)
06:27AM 40.2175 -75.2969 154° Southeast 288 331 6,000  Level FAA TRACON SMA TRACON (SMA)
06:27AM 40.1883 -75.2808 157° South 290 334 6,000  Level FAA TRACON SMA TRACON (SMA)
06:27AM 40.1656 -75.2681 157° South 289 333 6,000  Level FAA TRACON SMA TRACON (SMA)
06:28AM 40.1436 -75.2561 157° South 289 333 6,000  Level FAA TRACON SMA TRACON (SMA)
06:28AM 40.1144 -75.2386 155° Southeast 290 334 6,000 -180 Level FAA TRACON SMA TRACON (SMA)
06:28AM 40.0919 -75.2256 156° South 289 333 5,900 -600 Descending FAA TRACON SMA TRACON (SMA)
06:29AM 40.0692 -75.2125 156° South 289 333 5,600 -900 Descending FAA TRACON SMA TRACON (SMA)
06:29AM 40.0406 -75.1989 160° South 283 326 5,300 -780 Descending FAA TRACON SMA TRACON (SMA)
06:29AM 40.0178 -75.1903 164° South 280 322 5,100 -480 Descending FAA TRACON SMA TRACON (SMA)
06:30AM 39.9989 -75.1708 142° Southeast 279 321 5,000 -180 Descending FAA TRACON SMA TRACON (SMA)
06:30AM 39.9864 -75.1350 114° Southeast 270 311 5,000  Level FAA TRACON SMA TRACON (SMA)
06:30AM 39.9872 -75.1075 88° East 249 287 5,000 120 Level FAA TRACON SMA TRACON (SMA)
06:31AM 39.9933 -75.0756 76° East 222 255 5,100  Climbing FAA TRACON SMA TRACON (SMA)
06:31AM 39.9975 -75.0581 73° East 224 258 5,000 -180 Descending FAA TRACON SMA TRACON (SMA)
06:31AM 40.0039 -75.0289 74° East 216 249 5,000  Level FAA TRACON SMA TRACON (SMA)
06:32AM 40.0083 -75.0050 76° East 219 252 5,000 120 Level FAA TRACON SMA TRACON (SMA)
06:32AM 40.0025 -74.9814 108° East 230 265 5,100  Climbing FAA TRACON SMA TRACON (SMA)
06:32AM 39.9817 -74.9681 154° Southeast 213 245 5,000 -180 Descending FAA TRACON SMA TRACON (SMA)
06:33AM 39.9650 -74.9614 163° South 206 237 5,000 -300 Level FAA TRACON SMA TRACON (SMA)
06:33AM 39.9475 -74.9631 184° South 191 220 4,800 -1,080 Descending FAA TRACON SMA TRACON (SMA)
06:33AM 39.9339 -74.9794 223° Southwest 181 208 4,300 -1,380 Descending FAA TRACON SMA TRACON (SMA)
06:34AM 39.9222 -74.9922 220° Southwest 176 203 3,900 -1,200 Descending FAA TRACON SMA TRACON (SMA)
06:34AM 39.9169 -75.0089 248° West 165 190 3,500 -1,200 Descending FAA TRACON SMA TRACON (SMA)
06:34AM 39.9125 -75.0311 255° West 163 188 3,100 -900 Descending FAA TRACON SMA TRACON (SMA)
06:35AM 39.9097 -75.0486 258° West 163 188 2,900 -780 Descending FAA TRACON SMA TRACON (SMA)
06:35AM 39.9058 -75.0669 255° West 166 191 2,600 -1,080 Descending FAA TRACON SMA TRACON (SMA)
06:35AM 39.9017 -75.0897 257° West 167 192 2,200 -1,200 Descending FAA TRACON SMA TRACON (SMA)